sensor_id;sensor_type;location;lat;lon;timestamp;P1;durP1;ratioP1;P2;durP2;ratioP2
67798;SDS011;54596;43.216;27.904;2022-12-11T00:00:47;31.88;;;11.27;;
67798;SDS011;54596;43.216;27.904;2022-12-11T00:03:14;29.10;;;10.10;;
67798;SDS011;54596;43.216;27.904;2022-12-11T00:05:40;28.40;;;8.50;;
67798;SDS011;54596;43.216;27.904;2022-12-11T00:08:06;28.58;;;9.05;;
67798;SDS011;54596;43.216;27.904;2022-12-11T00:10:32;27.40;;;9.02;;
67798;SDS011;54596;43.216;27.904;2022-12-11T00:12:58;24.92;;;8.88;;
67798;SDS011;54596;43.216;27.904;2022-12-11T00:15:23;27.35;;;8.32;;
67798;SDS011;54596;43.216;27.904;2022-12-11T00:17:49;26.13;;;9.05;;
67798;SDS011;54596;43.216;27.904;2022-12-11T00:20:14;25.70;;;8.68;;
67798;SDS011;54596;43.216;27.904;2022-12-11T00:22:40;26.20;;;8.90;;
67798;SDS011;54596;43.216;27.904;2022-12-11T00:25:06;22.80;;;8.27;;
67798;SDS011;54596;43.216;27.904;2022-12-11T00:27:32;26.60;;;9.27;;
67798;SDS011;54596;43.216;27.904;2022-12-11T00:29:58;26.08;;;8.45;;
67798;SDS011;54596;43.216;27.904;2022-12-11T00:32:23;27.23;;;9.07;;
67798;SDS011;54596;43.216;27.904;2022-12-11T00:34:49;23.00;;;8.85;;
67798;SDS011;54596;43.216;27.904;2022-12-11T00:37:14;25.98;;;9.32;;
67798;SDS011;54596;43.216;27.904;2022-12-11T00:39:40;24.35;;;8.88;;
67798;SDS011;54596;43.216;27.904;2022-12-11T00:42:05;28.55;;;8.75;;
67798;SDS011;54596;43.216;27.904;2022-12-11T00:44:31;25.02;;;9.10;;
67798;SDS011;54596;43.216;27.904;2022-12-11T00:46:57;27.98;;;9.25;;
67798;SDS011;54596;43.216;27.904;2022-12-11T00:49:23;27.95;;;9.75;;
67798;SDS011;54596;43.216;27.904;2022-12-11T00:51:48;30.35;;;10.20;;
67798;SDS011;54596;43.216;27.904;2022-12-11T00:54:14;26.95;;;10.02;;
67798;SDS011;54596;43.216;27.904;2022-12-11T00:56:39;31.08;;;11.00;;
67798;SDS011;54596;43.216;27.904;2022-12-11T00:59:05;27.58;;;11.45;;
67798;SDS011;54596;43.216;27.904;2022-12-11T01:01:30;28.38;;;10.95;;
67798;SDS011;54596;43.216;27.904;2022-12-11T01:03:56;29.20;;;10.93;;
67798;SDS011;54596;43.216;27.904;2022-12-11T01:06:23;28.08;;;12.32;;
67798;SDS011;54596;43.216;27.904;2022-12-11T01:08:49;31.42;;;12.15;;
67798;SDS011;54596;43.216;27.904;2022-12-11T01:11:39;32.95;;;12.93;;
67798;SDS011;54596;43.216;27.904;2022-12-11T01:14:06;31.15;;;12.85;;
67798;SDS011;54596;43.216;27.904;2022-12-11T01:16:31;31.00;;;12.88;;
67798;SDS011;54596;43.216;27.904;2022-12-11T01:18:57;29.00;;;13.27;;
67798;SDS011;54596;43.216;27.904;2022-12-11T01:21:23;32.63;;;12.98;;
67798;SDS011;54596;43.216;27.904;2022-12-11T01:23:49;29.10;;;13.15;;
67798;SDS011;54596;43.216;27.904;2022-12-11T01:26:16;29.75;;;13.45;;
67798;SDS011;54596;43.216;27.904;2022-12-11T01:28:41;28.25;;;13.23;;
67798;SDS011;54596;43.216;27.904;2022-12-11T01:31:11;29.13;;;14.38;;
67798;SDS011;54596;43.216;27.904;2022-12-11T01:33:38;24.90;;;13.95;;
67798;SDS011;54596;43.216;27.904;2022-12-11T01:36:08;25.98;;;12.77;;
67798;SDS011;54596;43.216;27.904;2022-12-11T01:38:38;30.10;;;13.10;;
67798;SDS011;54596;43.216;27.904;2022-12-11T01:41:05;29.75;;;13.20;;
67798;SDS011;54596;43.216;27.904;2022-12-11T01:43:31;26.15;;;12.80;;
67798;SDS011;54596;43.216;27.904;2022-12-11T01:45:56;26.83;;;13.07;;
67798;SDS011;54596;43.216;27.904;2022-12-11T01:48:23;32.97;;;13.38;;
67798;SDS011;54596;43.216;27.904;2022-12-11T01:50:59;28.75;;;12.48;;
67798;SDS011;54596;43.216;27.904;2022-12-11T01:53:28;28.98;;;12.88;;
67798;SDS011;54596;43.216;27.904;2022-12-11T01:55:57;30.88;;;13.18;;
67798;SDS011;54596;43.216;27.904;2022-12-11T01:58:26;32.58;;;12.98;;
67798;SDS011;54596;43.216;27.904;2022-12-11T02:00:56;29.35;;;13.85;;
67798;SDS011;54596;43.216;27.904;2022-12-11T02:03:22;29.73;;;13.48;;
67798;SDS011;54596;43.216;27.904;2022-12-11T02:05:48;25.95;;;13.32;;
67798;SDS011;54596;43.216;27.904;2022-12-11T02:08:14;25.77;;;13.13;;
67798;SDS011;54596;43.216;27.904;2022-12-11T02:10:47;33.28;;;14.20;;
67798;SDS011;54596;43.216;27.904;2022-12-11T02:13:43;29.77;;;13.98;;
67798;SDS011;54596;43.216;27.904;2022-12-11T02:16:16;33.10;;;14.32;;
67798;SDS011;54596;43.216;27.904;2022-12-11T02:18:52;34.95;;;14.85;;
67798;SDS011;54596;43.216;27.904;2022-12-11T02:21:25;34.85;;;15.68;;
67798;SDS011;54596;43.216;27.904;2022-12-11T02:28:55;33.03;;;15.57;;
67798;SDS011;54596;43.216;27.904;2022-12-11T02:31:36;35.65;;;15.07;;
67798;SDS011;54596;43.216;27.904;2022-12-11T02:34:12;34.92;;;15.75;;
67798;SDS011;54596;43.216;27.904;2022-12-11T02:36:41;33.95;;;15.85;;
67798;SDS011;54596;43.216;27.904;2022-12-11T02:39:12;34.38;;;15.98;;
67798;SDS011;54596;43.216;27.904;2022-12-11T02:41:41;37.28;;;15.90;;
67798;SDS011;54596;43.216;27.904;2022-12-11T02:44:11;39.08;;;15.93;;
67798;SDS011;54596;43.216;27.904;2022-12-11T02:46:39;32.75;;;15.35;;
67798;SDS011;54596;43.216;27.904;2022-12-11T02:49:06;40.35;;;16.40;;
67798;SDS011;54596;43.216;27.904;2022-12-11T02:51:34;41.70;;;16.42;;
67798;SDS011;54596;43.216;27.904;2022-12-11T02:54:02;40.35;;;15.75;;
67798;SDS011;54596;43.216;27.904;2022-12-11T02:56:41;34.30;;;15.00;;
67798;SDS011;54596;43.216;27.904;2022-12-11T02:59:14;41.30;;;15.73;;
67798;SDS011;54596;43.216;27.904;2022-12-11T03:01:45;33.97;;;15.23;;
67798;SDS011;54596;43.216;27.904;2022-12-11T03:04:11;32.35;;;14.82;;
67798;SDS011;54596;43.216;27.904;2022-12-11T03:06:47;36.47;;;15.77;;
67798;SDS011;54596;43.216;27.904;2022-12-11T03:09:15;41.22;;;15.32;;
67798;SDS011;54596;43.216;27.904;2022-12-11T03:11:40;32.05;;;14.15;;
67798;SDS011;54596;43.216;27.904;2022-12-11T03:14:06;37.97;;;14.70;;
67798;SDS011;54596;43.216;27.904;2022-12-11T03:16:36;32.63;;;14.30;;
67798;SDS011;54596;43.216;27.904;2022-12-11T03:24:19;33.40;;;13.75;;
67798;SDS011;54596;43.216;27.904;2022-12-11T03:26:54;33.83;;;14.70;;
67798;SDS011;54596;43.216;27.904;2022-12-11T03:29:24;35.42;;;14.20;;
67798;SDS011;54596;43.216;27.904;2022-12-11T03:31:58;32.22;;;14.13;;
67798;SDS011;54596;43.216;27.904;2022-12-11T03:34:42;34.90;;;14.05;;
67798;SDS011;54596;43.216;27.904;2022-12-11T03:37:12;44.33;;;14.60;;
67798;SDS011;54596;43.216;27.904;2022-12-11T03:39:41;33.50;;;13.90;;
67798;SDS011;54596;43.216;27.904;2022-12-11T03:42:11;37.00;;;13.65;;
67798;SDS011;54596;43.216;27.904;2022-12-11T03:44:38;32.08;;;14.23;;
67798;SDS011;54596;43.216;27.904;2022-12-11T03:47:08;29.42;;;13.45;;
67798;SDS011;54596;43.216;27.904;2022-12-11T03:49:36;32.50;;;13.75;;
67798;SDS011;54596;43.216;27.904;2022-12-11T03:52:04;36.35;;;13.32;;
67798;SDS011;54596;43.216;27.904;2022-12-11T03:54:31;31.58;;;12.60;;
67798;SDS011;54596;43.216;27.904;2022-12-11T03:56:59;34.60;;;13.40;;
67798;SDS011;54596;43.216;27.904;2022-12-11T03:59:28;32.63;;;13.95;;
67798;SDS011;54596;43.216;27.904;2022-12-11T04:01:53;35.08;;;13.30;;
67798;SDS011;54596;43.216;27.904;2022-12-11T04:04:19;31.83;;;12.85;;
67798;SDS011;54596;43.216;27.904;2022-12-11T04:06:44;27.80;;;12.88;;
67798;SDS011;54596;43.216;27.904;2022-12-11T04:09:10;37.83;;;13.40;;
67798;SDS011;54596;43.216;27.904;2022-12-11T04:11:35;33.28;;;12.85;;
67798;SDS011;54596;43.216;27.904;2022-12-11T04:14:05;29.77;;;13.02;;
67798;SDS011;54596;43.216;27.904;2022-12-11T04:16:51;29.08;;;12.88;;
67798;SDS011;54596;43.216;27.904;2022-12-11T04:19:18;30.58;;;13.27;;
67798;SDS011;54596;43.216;27.904;2022-12-11T04:22:03;30.65;;;12.25;;
67798;SDS011;54596;43.216;27.904;2022-12-11T04:24:48;34.70;;;13.07;;
67798;SDS011;54596;43.216;27.904;2022-12-11T04:27:14;29.75;;;12.50;;
67798;SDS011;54596;43.216;27.904;2022-12-11T04:30:00;28.30;;;12.63;;
67798;SDS011;54596;43.216;27.904;2022-12-11T04:32:26;31.50;;;12.63;;
67798;SDS011;54596;43.216;27.904;2022-12-11T04:34:52;31.40;;;12.10;;
67798;SDS011;54596;43.216;27.904;2022-12-11T04:37:17;35.80;;;12.93;;
67798;SDS011;54596;43.216;27.904;2022-12-11T04:39:43;35.80;;;12.95;;
67798;SDS011;54596;43.216;27.904;2022-12-11T04:42:08;27.67;;;12.38;;
67798;SDS011;54596;43.216;27.904;2022-12-11T04:44:33;31.23;;;12.45;;
67798;SDS011;54596;43.216;27.904;2022-12-11T04:46:59;28.45;;;11.85;;
67798;SDS011;54596;43.216;27.904;2022-12-11T04:49:24;31.23;;;12.50;;
67798;SDS011;54596;43.216;27.904;2022-12-11T04:51:50;27.38;;;11.77;;
67798;SDS011;54596;43.216;27.904;2022-12-11T04:54:15;30.67;;;12.68;;
67798;SDS011;54596;43.216;27.904;2022-12-11T04:56:41;33.20;;;11.73;;
67798;SDS011;54596;43.216;27.904;2022-12-11T04:59:06;29.77;;;11.88;;
67798;SDS011;54596;43.216;27.904;2022-12-11T05:01:32;31.50;;;12.43;;
67798;SDS011;54596;43.216;27.904;2022-12-11T05:03:58;27.92;;;11.95;;
67798;SDS011;54596;43.216;27.904;2022-12-11T05:06:24;28.95;;;13.13;;
67798;SDS011;54596;43.216;27.904;2022-12-11T05:08:49;30.15;;;12.25;;
67798;SDS011;54596;43.216;27.904;2022-12-11T05:11:15;30.20;;;12.20;;
67798;SDS011;54596;43.216;27.904;2022-12-11T05:13:42;34.42;;;12.43;;
67798;SDS011;54596;43.216;27.904;2022-12-11T05:16:09;31.33;;;13.07;;
67798;SDS011;54596;43.216;27.904;2022-12-11T05:18:36;26.23;;;11.90;;
67798;SDS011;54596;43.216;27.904;2022-12-11T05:21:11;26.75;;;12.20;;
67798;SDS011;54596;43.216;27.904;2022-12-11T05:23:38;30.23;;;12.60;;
67798;SDS011;54596;43.216;27.904;2022-12-11T05:26:04;27.67;;;12.55;;
67798;SDS011;54596;43.216;27.904;2022-12-11T05:28:35;31.15;;;12.68;;
67798;SDS011;54596;43.216;27.904;2022-12-11T05:31:03;35.25;;;12.27;;
67798;SDS011;54596;43.216;27.904;2022-12-11T05:33:36;29.13;;;12.82;;
67798;SDS011;54596;43.216;27.904;2022-12-11T05:36:01;31.67;;;12.40;;
67798;SDS011;54596;43.216;27.904;2022-12-11T05:38:27;29.90;;;13.25;;
67798;SDS011;54596;43.216;27.904;2022-12-11T05:41:03;27.15;;;12.18;;
67798;SDS011;54596;43.216;27.904;2022-12-11T05:43:31;30.98;;;11.90;;
67798;SDS011;54596;43.216;27.904;2022-12-11T05:46:05;30.98;;;11.80;;
67798;SDS011;54596;43.216;27.904;2022-12-11T05:48:31;28.02;;;12.02;;
67798;SDS011;54596;43.216;27.904;2022-12-11T05:50:57;23.27;;;12.32;;
67798;SDS011;54596;43.216;27.904;2022-12-11T05:53:24;27.63;;;12.75;;
67798;SDS011;54596;43.216;27.904;2022-12-11T05:55:49;33.92;;;11.07;;
67798;SDS011;54596;43.216;27.904;2022-12-11T05:58:15;27.80;;;11.23;;
67798;SDS011;54596;43.216;27.904;2022-12-11T06:00:41;29.90;;;11.70;;
67798;SDS011;54596;43.216;27.904;2022-12-11T06:03:07;27.38;;;12.35;;
67798;SDS011;54596;43.216;27.904;2022-12-11T06:05:36;31.58;;;11.48;;
67798;SDS011;54596;43.216;27.904;2022-12-11T06:08:03;28.02;;;12.85;;
67798;SDS011;54596;43.216;27.904;2022-12-11T06:10:28;25.88;;;12.90;;
67798;SDS011;54596;43.216;27.904;2022-12-11T06:12:54;31.15;;;13.00;;
67798;SDS011;54596;43.216;27.904;2022-12-11T06:15:19;32.30;;;11.95;;
67798;SDS011;54596;43.216;27.904;2022-12-11T06:17:45;27.10;;;12.45;;
67798;SDS011;54596;43.216;27.904;2022-12-11T06:20:10;28.40;;;12.40;;
67798;SDS011;54596;43.216;27.904;2022-12-11T06:22:36;30.23;;;12.57;;
67798;SDS011;54596;43.216;27.904;2022-12-11T06:25:01;27.65;;;12.10;;
67798;SDS011;54596;43.216;27.904;2022-12-11T06:27:27;34.10;;;11.55;;
67798;SDS011;54596;43.216;27.904;2022-12-11T06:29:52;29.05;;;10.45;;
67798;SDS011;54596;43.216;27.904;2022-12-11T06:32:18;28.80;;;10.07;;
67798;SDS011;54596;43.216;27.904;2022-12-11T06:34:43;23.98;;;10.45;;
67798;SDS011;54596;43.216;27.904;2022-12-11T06:37:08;30.95;;;10.20;;
67798;SDS011;54596;43.216;27.904;2022-12-11T06:39:34;27.13;;;9.90;;
67798;SDS011;54596;43.216;27.904;2022-12-11T06:41:59;28.05;;;8.90;;
67798;SDS011;54596;43.216;27.904;2022-12-11T06:44:25;26.00;;;9.48;;
67798;SDS011;54596;43.216;27.904;2022-12-11T06:46:50;31.38;;;10.60;;
67798;SDS011;54596;43.216;27.904;2022-12-11T06:49:16;31.17;;;9.57;;
67798;SDS011;54596;43.216;27.904;2022-12-11T06:51:41;30.30;;;9.05;;
67798;SDS011;54596;43.216;27.904;2022-12-11T06:54:07;27.27;;;8.55;;
67798;SDS011;54596;43.216;27.904;2022-12-11T06:56:33;29.20;;;9.13;;
67798;SDS011;54596;43.216;27.904;2022-12-11T06:58:59;28.25;;;9.65;;
67798;SDS011;54596;43.216;27.904;2022-12-11T07:01:26;31.35;;;8.73;;
67798;SDS011;54596;43.216;27.904;2022-12-11T07:03:52;28.58;;;9.45;;
67798;SDS011;54596;43.216;27.904;2022-12-11T07:06:19;28.38;;;7.88;;
67798;SDS011;54596;43.216;27.904;2022-12-11T07:08:44;30.73;;;7.93;;
67798;SDS011;54596;43.216;27.904;2022-12-11T07:11:11;27.75;;;8.18;;
67798;SDS011;54596;43.216;27.904;2022-12-11T07:13:38;28.42;;;9.68;;
67798;SDS011;54596;43.216;27.904;2022-12-11T07:16:06;27.38;;;8.95;;
67798;SDS011;54596;43.216;27.904;2022-12-11T07:18:35;27.38;;;8.93;;
67798;SDS011;54596;43.216;27.904;2022-12-11T07:21:04;28.20;;;8.63;;
67798;SDS011;54596;43.216;27.904;2022-12-11T07:23:30;23.92;;;8.10;;
67798;SDS011;54596;43.216;27.904;2022-12-11T07:25:56;28.50;;;10.02;;
67798;SDS011;54596;43.216;27.904;2022-12-11T07:28:22;25.33;;;8.52;;
67798;SDS011;54596;43.216;27.904;2022-12-11T07:30:48;27.67;;;9.00;;
67798;SDS011;54596;43.216;27.904;2022-12-11T07:33:13;28.55;;;8.73;;
67798;SDS011;54596;43.216;27.904;2022-12-11T07:35:39;25.40;;;9.30;;
67798;SDS011;54596;43.216;27.904;2022-12-11T07:38:05;29.20;;;9.73;;
67798;SDS011;54596;43.216;27.904;2022-12-11T07:40:31;20.15;;;8.15;;
67798;SDS011;54596;43.216;27.904;2022-12-11T07:42:57;26.42;;;8.50;;
67798;SDS011;54596;43.216;27.904;2022-12-11T07:45:23;23.80;;;8.18;;
67798;SDS011;54596;43.216;27.904;2022-12-11T07:47:50;26.83;;;7.75;;
67798;SDS011;54596;43.216;27.904;2022-12-11T07:50:16;23.13;;;7.93;;
67798;SDS011;54596;43.216;27.904;2022-12-11T07:52:42;23.80;;;6.97;;
67798;SDS011;54596;43.216;27.904;2022-12-11T07:55:07;26.08;;;7.68;;
67798;SDS011;54596;43.216;27.904;2022-12-11T07:57:33;23.73;;;7.72;;
67798;SDS011;54596;43.216;27.904;2022-12-11T07:59:58;22.95;;;7.38;;
67798;SDS011;54596;43.216;27.904;2022-12-11T08:02:24;21.13;;;7.28;;
67798;SDS011;54596;43.216;27.904;2022-12-11T08:04:49;20.83;;;6.53;;
67798;SDS011;54596;43.216;27.904;2022-12-11T08:07:15;23.40;;;7.03;;
67798;SDS011;54596;43.216;27.904;2022-12-11T08:09:40;20.08;;;6.72;;
67798;SDS011;54596;43.216;27.904;2022-12-11T08:12:06;21.05;;;6.53;;
67798;SDS011;54596;43.216;27.904;2022-12-11T08:14:31;19.95;;;6.25;;
67798;SDS011;54596;43.216;27.904;2022-12-11T08:16:57;17.58;;;6.50;;
67798;SDS011;54596;43.216;27.904;2022-12-11T08:19:24;20.05;;;6.78;;
67798;SDS011;54596;43.216;27.904;2022-12-11T08:21:49;20.67;;;6.53;;
67798;SDS011;54596;43.216;27.904;2022-12-11T08:24:15;19.52;;;7.05;;
67798;SDS011;54596;43.216;27.904;2022-12-11T08:26:44;22.58;;;7.65;;
67798;SDS011;54596;43.216;27.904;2022-12-11T08:29:10;23.20;;;7.63;;
67798;SDS011;54596;43.216;27.904;2022-12-11T08:31:36;20.67;;;6.90;;
67798;SDS011;54596;43.216;27.904;2022-12-11T08:34:03;20.65;;;6.60;;
67798;SDS011;54596;43.216;27.904;2022-12-11T08:36:29;21.25;;;7.38;;
67798;SDS011;54596;43.216;27.904;2022-12-11T08:38:54;19.75;;;6.78;;
67798;SDS011;54596;43.216;27.904;2022-12-11T08:41:21;19.65;;;6.22;;
67798;SDS011;54596;43.216;27.904;2022-12-11T08:43:46;17.38;;;6.00;;
67798;SDS011;54596;43.216;27.904;2022-12-11T08:46:12;17.17;;;5.90;;
67798;SDS011;54596;43.216;27.904;2022-12-11T08:48:40;17.88;;;5.40;;
67798;SDS011;54596;43.216;27.904;2022-12-11T08:51:09;38.35;;;6.28;;
67798;SDS011;54596;43.216;27.904;2022-12-11T08:53:37;17.67;;;5.13;;
67798;SDS011;54596;43.216;27.904;2022-12-11T08:56:08;14.90;;;4.90;;
67798;SDS011;54596;43.216;27.904;2022-12-11T08:58:35;18.17;;;4.88;;
67798;SDS011;54596;43.216;27.904;2022-12-11T09:01:08;15.75;;;4.47;;
67798;SDS011;54596;43.216;27.904;2022-12-11T09:03:35;17.33;;;4.68;;
67798;SDS011;54596;43.216;27.904;2022-12-11T09:06:08;15.88;;;4.82;;
67798;SDS011;54596;43.216;27.904;2022-12-11T09:08:36;17.05;;;4.53;;
67798;SDS011;54596;43.216;27.904;2022-12-11T09:11:05;15.23;;;4.40;;
67798;SDS011;54596;43.216;27.904;2022-12-11T09:13:34;17.38;;;5.22;;
67798;SDS011;54596;43.216;27.904;2022-12-11T09:15:59;16.55;;;4.32;;
67798;SDS011;54596;43.216;27.904;2022-12-11T09:18:27;16.08;;;4.60;;
67798;SDS011;54596;43.216;27.904;2022-12-11T09:21:02;19.40;;;5.22;;
67798;SDS011;54596;43.216;27.904;2022-12-11T09:23:30;18.85;;;4.35;;
67798;SDS011;54596;43.216;27.904;2022-12-11T09:25:56;15.20;;;4.78;;
67798;SDS011;54596;43.216;27.904;2022-12-11T09:28:21;16.70;;;4.60;;
67798;SDS011;54596;43.216;27.904;2022-12-11T09:30:47;17.20;;;4.80;;
67798;SDS011;54596;43.216;27.904;2022-12-11T09:33:13;17.77;;;4.80;;
67798;SDS011;54596;43.216;27.904;2022-12-11T09:35:38;16.15;;;4.80;;
67798;SDS011;54596;43.216;27.904;2022-12-11T09:38:04;19.00;;;4.50;;
67798;SDS011;54596;43.216;27.904;2022-12-11T09:40:30;16.70;;;4.57;;
67798;SDS011;54596;43.216;27.904;2022-12-11T09:45:27;15.85;;;4.20;;
67798;SDS011;54596;43.216;27.904;2022-12-11T09:47:54;12.82;;;4.13;;
67798;SDS011;54596;43.216;27.904;2022-12-11T09:50:22;15.00;;;4.72;;
67798;SDS011;54596;43.216;27.904;2022-12-11T09:53:11;15.23;;;4.30;;
67798;SDS011;54596;43.216;27.904;2022-12-11T10:01:08;20.03;;;5.23;;
67798;SDS011;54596;43.216;27.904;2022-12-11T10:07:04;17.20;;;4.50;;
67798;SDS011;54596;43.216;27.904;2022-12-11T10:09:47;17.40;;;5.18;;
67798;SDS011;54596;43.216;27.904;2022-12-11T10:15:25;27.10;;;9.77;;
67798;SDS011;54596;43.216;27.904;2022-12-11T10:18:04;19.73;;;5.18;;
67798;SDS011;54596;43.216;27.904;2022-12-11T10:20:36;24.02;;;7.40;;
67798;SDS011;54596;43.216;27.904;2022-12-11T10:23:08;19.75;;;5.15;;
67798;SDS011;54596;43.216;27.904;2022-12-11T10:25:40;17.30;;;6.05;;
67798;SDS011;54596;43.216;27.904;2022-12-11T10:28:13;22.02;;;5.78;;
67798;SDS011;54596;43.216;27.904;2022-12-11T10:30:55;18.15;;;4.43;;
67798;SDS011;54596;43.216;27.904;2022-12-11T10:36:31;18.88;;;4.35;;
67798;SDS011;54596;43.216;27.904;2022-12-11T10:39:00;22.25;;;5.53;;
67798;SDS011;54596;43.216;27.904;2022-12-11T10:44:11;23.27;;;6.65;;
67798;SDS011;54596;43.216;27.904;2022-12-11T10:46:40;24.50;;;8.95;;
67798;SDS011;54596;43.216;27.904;2022-12-11T10:49:17;18.67;;;6.93;;
67798;SDS011;54596;43.216;27.904;2022-12-11T10:51:53;23.30;;;9.18;;
67798;SDS011;54596;43.216;27.904;2022-12-11T10:57:02;22.83;;;6.88;;
67798;SDS011;54596;43.216;27.904;2022-12-11T11:05:12;20.05;;;6.25;;
67798;SDS011;54596;43.216;27.904;2022-12-11T11:07:42;17.90;;;6.03;;
67798;SDS011;54596;43.216;27.904;2022-12-11T11:12:40;17.65;;;5.20;;
67798;SDS011;54596;43.216;27.904;2022-12-11T11:17:51;25.45;;;7.50;;
67798;SDS011;54596;43.216;27.904;2022-12-11T11:20:19;26.05;;;9.02;;
67798;SDS011;54596;43.216;27.904;2022-12-11T11:22:48;22.45;;;6.57;;
67798;SDS011;54596;43.216;27.904;2022-12-11T11:25:17;22.83;;;7.35;;
67798;SDS011;54596;43.216;27.904;2022-12-11T11:28:04;18.85;;;4.60;;
67798;SDS011;54596;43.216;27.904;2022-12-11T11:30:35;22.80;;;5.85;;
67798;SDS011;54596;43.216;27.904;2022-12-11T11:33:13;38.40;;;11.05;;
67798;SDS011;54596;43.216;27.904;2022-12-11T11:35:50;37.45;;;9.98;;
67798;SDS011;54596;43.216;27.904;2022-12-11T11:38:25;35.97;;;9.68;;
67798;SDS011;54596;43.216;27.904;2022-12-11T11:41:04;30.63;;;9.20;;
67798;SDS011;54596;43.216;27.904;2022-12-11T11:43:59;29.58;;;9.43;;
67798;SDS011;54596;43.216;27.904;2022-12-11T11:46:38;35.83;;;11.00;;
67798;SDS011;54596;43.216;27.904;2022-12-11T11:51:57;29.60;;;10.20;;
67798;SDS011;54596;43.216;27.904;2022-12-11T11:57:26;34.53;;;11.65;;
67798;SDS011;54596;43.216;27.904;2022-12-11T12:00:00;45.42;;;11.60;;
67798;SDS011;54596;43.216;27.904;2022-12-11T12:02:37;38.65;;;11.73;;
67798;SDS011;54596;43.216;27.904;2022-12-11T12:05:02;39.33;;;10.43;;
67798;SDS011;54596;43.216;27.904;2022-12-11T12:07:35;37.20;;;11.43;;
67798;SDS011;54596;43.216;27.904;2022-12-11T12:10:18;36.75;;;9.95;;
67798;SDS011;54596;43.216;27.904;2022-12-11T12:13:00;41.95;;;10.63;;
67798;SDS011;54596;43.216;27.904;2022-12-11T12:15:53;39.03;;;10.23;;
67798;SDS011;54596;43.216;27.904;2022-12-11T12:21:18;26.70;;;8.60;;
67798;SDS011;54596;43.216;27.904;2022-12-11T12:26:52;30.30;;;8.52;;
67798;SDS011;54596;43.216;27.904;2022-12-11T12:29:42;29.95;;;9.15;;
67798;SDS011;54596;43.216;27.904;2022-12-11T12:35:47;29.70;;;9.05;;
67798;SDS011;54596;43.216;27.904;2022-12-11T12:41:19;31.80;;;8.40;;
67798;SDS011;54596;43.216;27.904;2022-12-11T12:47:15;34.05;;;8.73;;
67798;SDS011;54596;43.216;27.904;2022-12-11T12:49:42;32.05;;;9.20;;
67798;SDS011;54596;43.216;27.904;2022-12-11T12:52:11;33.45;;;8.73;;
67798;SDS011;54596;43.216;27.904;2022-12-11T12:54:44;31.52;;;8.05;;
67798;SDS011;54596;43.216;27.904;2022-12-11T12:57:33;32.50;;;8.45;;
67798;SDS011;54596;43.216;27.904;2022-12-11T13:00:01;25.58;;;7.55;;
67798;SDS011;54596;43.216;27.904;2022-12-11T13:02:29;35.17;;;8.32;;
67798;SDS011;54596;43.216;27.904;2022-12-11T13:04:55;30.83;;;8.30;;
67798;SDS011;54596;43.216;27.904;2022-12-11T13:07:28;32.92;;;8.93;;
67798;SDS011;54596;43.216;27.904;2022-12-11T13:12:30;26.93;;;7.13;;
67798;SDS011;54596;43.216;27.904;2022-12-11T13:17:49;30.02;;;8.00;;
67798;SDS011;54596;43.216;27.904;2022-12-11T13:20:18;31.50;;;8.32;;
67798;SDS011;54596;43.216;27.904;2022-12-11T13:25:20;34.17;;;9.15;;
67798;SDS011;54596;43.216;27.904;2022-12-11T13:28:03;33.08;;;9.07;;
67798;SDS011;54596;43.216;27.904;2022-12-11T13:30:30;29.48;;;8.40;;
67798;SDS011;54596;43.216;27.904;2022-12-11T13:32:58;36.70;;;10.13;;
67798;SDS011;54596;43.216;27.904;2022-12-11T13:35:41;33.65;;;9.82;;
67798;SDS011;54596;43.216;27.904;2022-12-11T13:38:14;36.53;;;9.25;;
67798;SDS011;54596;43.216;27.904;2022-12-11T13:40:42;39.20;;;10.63;;
67798;SDS011;54596;43.216;27.904;2022-12-11T13:43:19;34.70;;;8.95;;
67798;SDS011;54596;43.216;27.904;2022-12-11T13:45:49;29.63;;;8.73;;
67798;SDS011;54596;43.216;27.904;2022-12-11T13:48:18;25.45;;;8.30;;
67798;SDS011;54596;43.216;27.904;2022-12-11T13:50:48;39.03;;;10.25;;
67798;SDS011;54596;43.216;27.904;2022-12-11T13:53:19;34.78;;;9.35;;
67798;SDS011;54596;43.216;27.904;2022-12-11T13:55:45;33.80;;;9.30;;
67798;SDS011;54596;43.216;27.904;2022-12-11T13:58:20;32.28;;;9.25;;
67798;SDS011;54596;43.216;27.904;2022-12-11T14:00:58;32.70;;;9.52;;
67798;SDS011;54596;43.216;27.904;2022-12-11T14:03:30;28.23;;;8.57;;
67798;SDS011;54596;43.216;27.904;2022-12-11T14:05:56;36.30;;;8.43;;
67798;SDS011;54596;43.216;27.904;2022-12-11T14:08:24;37.30;;;7.80;;
67798;SDS011;54596;43.216;27.904;2022-12-11T14:10:55;31.02;;;8.27;;
67798;SDS011;54596;43.216;27.904;2022-12-11T14:13:25;28.08;;;8.05;;
67798;SDS011;54596;43.216;27.904;2022-12-11T14:15:59;33.08;;;8.50;;
67798;SDS011;54596;43.216;27.904;2022-12-11T14:18:26;37.38;;;9.05;;
67798;SDS011;54596;43.216;27.904;2022-12-11T14:20:54;39.72;;;8.48;;
67798;SDS011;54596;43.216;27.904;2022-12-11T14:23:23;35.97;;;8.10;;
67798;SDS011;54596;43.216;27.904;2022-12-11T14:25:51;32.40;;;9.02;;
67798;SDS011;54596;43.216;27.904;2022-12-11T14:28:24;35.22;;;9.15;;
67798;SDS011;54596;43.216;27.904;2022-12-11T14:30:53;27.40;;;8.18;;
67798;SDS011;54596;43.216;27.904;2022-12-11T14:33:24;50.70;;;14.30;;
67798;SDS011;54596;43.216;27.904;2022-12-11T14:35:55;40.92;;;11.23;;
67798;SDS011;54596;43.216;27.904;2022-12-11T14:38:22;35.25;;;8.80;;
67798;SDS011;54596;43.216;27.904;2022-12-11T14:40:54;37.42;;;10.20;;
67798;SDS011;54596;43.216;27.904;2022-12-11T14:43:27;30.93;;;7.90;;
67798;SDS011;54596;43.216;27.904;2022-12-11T14:46:05;29.45;;;7.70;;
67798;SDS011;54596;43.216;27.904;2022-12-11T14:48:36;31.70;;;8.27;;
67798;SDS011;54596;43.216;27.904;2022-12-11T14:51:09;32.67;;;8.05;;
67798;SDS011;54596;43.216;27.904;2022-12-11T14:53:45;41.15;;;8.80;;
67798;SDS011;54596;43.216;27.904;2022-12-11T14:56:17;37.55;;;8.82;;
67798;SDS011;54596;43.216;27.904;2022-12-11T14:58:51;30.58;;;8.32;;
67798;SDS011;54596;43.216;27.904;2022-12-11T15:01:26;36.90;;;8.45;;
67798;SDS011;54596;43.216;27.904;2022-12-11T15:04:18;40.00;;;8.98;;
67798;SDS011;54596;43.216;27.904;2022-12-11T15:06:48;37.17;;;8.30;;
67798;SDS011;54596;43.216;27.904;2022-12-11T15:09:19;36.33;;;8.30;;
67798;SDS011;54596;43.216;27.904;2022-12-11T15:11:48;33.88;;;7.50;;
67798;SDS011;54596;43.216;27.904;2022-12-11T15:14:15;33.40;;;8.10;;
67798;SDS011;54596;43.216;27.904;2022-12-11T15:16:43;34.00;;;8.20;;
67798;SDS011;54596;43.216;27.904;2022-12-11T15:19:17;31.85;;;8.38;;
67798;SDS011;54596;43.216;27.904;2022-12-11T15:22:05;35.20;;;8.48;;
67798;SDS011;54596;43.216;27.904;2022-12-11T15:24:35;30.60;;;7.75;;
67798;SDS011;54596;43.216;27.904;2022-12-11T15:27:04;33.38;;;7.40;;
67798;SDS011;54596;43.216;27.904;2022-12-11T15:29:37;32.38;;;8.40;;
67798;SDS011;54596;43.216;27.904;2022-12-11T15:34:52;33.58;;;8.60;;
67798;SDS011;54596;43.216;27.904;2022-12-11T15:37:32;31.27;;;8.75;;
67798;SDS011;54596;43.216;27.904;2022-12-11T15:40:02;31.33;;;8.00;;
67798;SDS011;54596;43.216;27.904;2022-12-11T15:42:36;33.92;;;8.35;;
67798;SDS011;54596;43.216;27.904;2022-12-11T15:45:06;30.75;;;7.57;;